Terminal Aerodrome Forecast
Issued by NWS

Home | Current Version | Previous Version | Text Only | Print | Product List | Glossary On
Versions: 1 2 3 4 5 6 7 8 9 10 11 12 13 14 15 16 17 18 19 20 21 22 23 24 25 26
000
FTUS42 KTBW 260527
TAFPIE
TAF
KPIE 260527Z 2606/2706 20008KT P6SM FEW020 SCT070 BKN250
     FM261200 20013G20KT P6SM VCSH SCT020 BKN070 OVC200
     FM261400 22016G24KT 6SM SHRA VCTS SCT020CB BKN050 OVC200
     FM261800 26017G25KT P6SM VCSH SCT020 BKN050 BKN200
     FM270000 29010KT P6SM FEW050 SCT250=

USA.gov is the U.S. government's official web portal to all federal, state and local government web resources and services.